createdAt,value
2018-06-14T00:00:17.050Z,7.23
2018-06-14T00:02:45.566Z,6.97
2018-06-14T00:05:13.996Z,8.07
2018-06-14T00:07:42.655Z,7.80
2018-06-14T00:10:12.912Z,9.60
2018-06-14T00:12:41.969Z,8.90
2018-06-14T00:15:10.948Z,8.97
2018-06-14T00:17:39.480Z,8.90
2018-06-14T00:20:08.682Z,9.10
2018-06-14T00:22:37.045Z,8.63
2018-06-14T00:25:05.675Z,8.80
2018-06-14T00:27:34.077Z,8.83
2018-06-14T00:30:03.811Z,8.73
2018-06-14T00:32:32.019Z,8.70
2018-06-14T00:35:00.248Z,9.30
2018-06-14T00:37:28.443Z,9.30
2018-06-14T00:39:56.914Z,9.60
2018-06-14T00:42:25.416Z,9.23
2018-06-14T00:44:53.647Z,9.77
2018-06-14T00:47:22.112Z,10.43
2018-06-14T00:49:50.343Z,9.63
2018-06-14T00:52:18.610Z,9.60
2018-06-14T00:54:47.178Z,9.80
2018-06-14T00:57:26.503Z,9.60
2018-06-14T00:59:55.480Z,9.47
2018-06-14T01:02:23.752Z,10.43
2018-06-14T01:04:52.053Z,10.07
2018-06-14T01:07:20.343Z,10.27
2018-06-14T01:09:48.722Z,9.30
2018-06-14T01:12:17.023Z,10.00
2018-06-14T01:14:45.246Z,10.77
2018-06-14T01:17:13.527Z,10.00
2018-06-14T01:19:41.802Z,10.47
2018-06-14T01:22:10.059Z,9.77
2018-06-14T01:24:38.327Z,9.83
2018-06-14T01:27:10.025Z,10.23
2018-06-14T01:29:38.281Z,10.57
2018-06-14T01:32:06.505Z,10.70
2018-06-14T01:34:34.775Z,10.13
2018-06-14T01:37:03.523Z,9.70
2018-06-14T01:39:32.175Z,9.07
2018-06-14T01:42:00.451Z,10.07
2018-06-14T01:44:28.659Z,9.97
2018-06-14T01:46:56.916Z,9.47
2018-06-14T01:49:25.184Z,9.27
2018-06-14T01:51:53.427Z,9.20
2018-06-14T01:54:21.934Z,8.93
2018-06-14T01:56:50.470Z,9.80
2018-06-14T01:59:18.689Z,8.77
2018-06-14T02:01:46.884Z,9.97
2018-06-14T02:04:15.180Z,9.27
2018-06-14T02:06:43.437Z,9.83
2018-06-14T02:09:11.677Z,9.77
2018-06-14T02:11:39.938Z,9.63
2018-06-14T02:14:08.163Z,9.20
2018-06-14T02:16:36.398Z,10.00
2018-06-14T02:19:04.720Z,9.37
2018-06-14T02:21:33.075Z,10.17
2018-06-14T02:24:01.430Z,9.90
2018-06-14T02:26:29.995Z,10.37
2018-06-14T02:28:58.239Z,10.27
2018-06-14T02:31:26.526Z,9.70
2018-06-14T02:33:54.756Z,9.27
2018-06-14T02:36:23.064Z,9.83
2018-06-14T02:38:51.073Z,9.53
2018-06-14T02:41:19.356Z,10.17
2018-06-14T02:43:47.591Z,9.70
2018-06-14T02:46:15.811Z,10.10
2018-06-14T02:48:44.168Z,10.57
2018-06-14T02:51:12.453Z,10.47
2018-06-14T02:53:40.684Z,10.87
2018-06-14T02:56:09.217Z,11.10
2018-06-14T02:58:37.491Z,10.17
2018-06-14T03:01:05.724Z,10.17
2018-06-14T03:03:33.959Z,10.77
2018-06-14T03:06:04.225Z,9.93
2018-06-14T03:08:32.820Z,10.23
2018-06-14T03:11:01.111Z,9.70
2018-06-14T03:13:29.443Z,8.70
2018-06-14T03:15:57.761Z,9.53
2018-06-14T03:18:26.020Z,9.73
2018-06-14T03:20:54.215Z,9.33
2018-06-14T03:23:22.744Z,10.47
2018-06-14T03:25:50.997Z,9.20
2018-06-14T03:28:19.268Z,10.00
2018-06-14T03:30:47.905Z,9.73
2018-06-14T03:33:17.035Z,9.63
2018-06-14T03:35:45.297Z,10.13
2018-06-14T03:38:13.544Z,9.97
2018-06-14T03:40:41.784Z,9.60
2018-06-14T03:43:10.048Z,8.10
2018-06-14T03:45:38.326Z,8.33
2018-06-14T03:48:06.638Z,8.97
2018-06-14T03:50:35.150Z,8.70
2018-06-14T03:53:03.426Z,8.27
2018-06-14T03:55:31.680Z,8.77
2018-06-14T03:57:59.982Z,8.63
2018-06-14T04:00:28.240Z,9.10
2018-06-14T04:02:56.775Z,8.90
2018-06-14T04:05:25.059Z,7.97
2018-06-14T04:07:53.322Z,8.67
2018-06-14T04:10:21.592Z,8.00
2018-06-14T04:12:49.827Z,7.53
2018-06-14T04:15:17.796Z,7.90
2018-06-14T04:17:50.247Z,7.77
2018-06-14T04:20:18.513Z,7.53
2018-06-14T04:22:46.760Z,8.17
2018-06-14T04:25:14.972Z,6.93
2018-06-14T04:27:43.240Z,6.53
2018-06-14T04:30:11.528Z,6.97
2018-06-14T04:32:41.188Z,7.37
2018-06-14T04:35:09.418Z,7.30
2018-06-14T04:37:37.643Z,6.40
2018-06-14T04:40:06.016Z,6.93
2018-06-14T04:42:34.263Z,7.10
2018-06-14T04:45:02.581Z,6.20
2018-06-14T04:47:30.879Z,6.57
2018-06-14T04:49:59.148Z,6.33
2018-06-14T04:52:27.432Z,6.30
2018-06-14T04:54:55.636Z,6.60
2018-06-14T04:57:23.594Z,6.10
2018-06-14T04:59:51.908Z,4.72
2018-06-14T05:02:20.147Z,6.17
2018-06-14T05:04:48.361Z,6.53
2018-06-14T05:07:16.655Z,6.50
2018-06-14T05:09:44.950Z,5.90
2018-06-14T05:12:14.274Z,5.80
2018-06-14T05:14:42.522Z,5.50
2018-06-14T05:17:10.771Z,5.15
2018-06-14T05:19:39.329Z,5.72
2018-06-14T05:22:07.557Z,5.72
2018-06-14T05:24:36.303Z,5.65
2018-06-14T05:27:04.462Z,5.37
2018-06-14T05:29:33.049Z,5.62
2018-06-14T05:32:01.592Z,5.62
2018-06-14T05:34:30.210Z,5.28
2018-06-14T05:36:58.498Z,6.15
2018-06-14T05:39:26.851Z,4.97
2018-06-14T05:41:55.226Z,5.08
2018-06-14T05:44:23.623Z,5.33
2018-06-14T05:46:54.559Z,5.85
2018-06-14T05:49:22.861Z,5.12
2018-06-14T05:51:51.988Z,5.08
2018-06-14T05:54:20.851Z,5.15
2018-06-14T05:56:49.950Z,5.30
2018-06-14T05:59:18.485Z,5.10
2018-06-14T06:01:47.083Z,5.12
2018-06-14T06:04:15.371Z,4.75
2018-06-14T06:06:43.342Z,4.25
2018-06-14T06:09:12.135Z,4.50
2018-06-14T06:11:41.004Z,4.20
2018-06-14T06:14:09.395Z,4.15
2018-06-14T06:16:41.719Z,4.25
2018-06-14T06:19:10.772Z,3.50
2018-06-14T06:21:39.016Z,4.33
2018-06-14T06:24:07.261Z,4.25
2018-06-14T06:26:35.529Z,4.40
2018-06-14T06:29:03.864Z,4.22
2018-06-14T06:31:32.127Z,4.30
2018-06-14T06:34:00.369Z,5.20
2018-06-14T06:36:28.921Z,5.10
2018-06-14T06:38:57.127Z,5.05
2018-06-14T06:41:25.426Z,5.30
2018-06-14T06:43:53.835Z,5.58
2018-06-14T06:46:22.063Z,4.30
2018-06-14T06:48:50.283Z,4.28
2018-06-14T06:51:18.599Z,3.60
2018-06-14T06:53:46.855Z,4.55
2018-06-14T06:56:15.721Z,5.05
2018-06-14T06:58:44.380Z,4.62
2018-06-14T07:01:12.756Z,4.75
2018-06-14T07:03:40.997Z,5.62
2018-06-14T07:06:10.763Z,5.25
2018-06-14T07:08:39.043Z,4.60
2018-06-14T07:11:07.321Z,5.22
2018-06-14T07:13:35.611Z,4.80
2018-06-14T07:16:03.856Z,5.47
2018-06-14T07:18:32.151Z,6.10
2018-06-14T07:21:00.456Z,5.33
2018-06-14T07:23:28.701Z,5.80
2018-06-14T07:25:56.907Z,6.10
2018-06-14T07:28:25.151Z,5.83
2018-06-14T07:30:54.442Z,5.55
2018-06-14T07:33:22.470Z,6.20
2018-06-14T07:35:51.059Z,5.85
2018-06-14T07:38:19.303Z,5.70
2018-06-14T07:40:47.535Z,6.45
2018-06-14T07:43:15.944Z,5.72
2018-06-14T07:45:44.164Z,6.55
2018-06-14T07:48:12.547Z,7.15
2018-06-14T07:50:42.173Z,5.53
2018-06-14T07:53:10.441Z,5.65
2018-06-14T07:55:38.682Z,6.70
2018-06-14T07:58:06.934Z,5.67
2018-06-14T08:00:34.960Z,6.65
2018-06-14T08:03:03.252Z,6.25
2018-06-14T08:05:31.584Z,5.65
2018-06-14T08:07:59.883Z,5.83
2018-06-14T08:10:28.156Z,6.25
2018-06-14T08:12:56.387Z,6.42
2018-06-14T08:15:24.655Z,5.15
2018-06-14T08:17:53.260Z,4.30
2018-06-14T08:20:22.264Z,5.08
2018-06-14T08:22:50.752Z,5.40
2018-06-14T08:25:18.963Z,5.55
2018-06-14T08:27:47.316Z,3.62
2018-06-14T08:30:15.493Z,4.60
2018-06-14T08:32:43.787Z,3.52
2018-06-14T08:35:12.107Z,5.33
2018-06-14T08:37:40.611Z,4.80
2018-06-14T08:40:08.972Z,4.08
2018-06-14T08:42:37.210Z,3.83
2018-06-14T08:45:05.445Z,4.55
2018-06-14T08:47:33.691Z,4.45
2018-06-14T08:50:01.984Z,4.40
2018-06-14T08:52:30.225Z,4.20
2018-06-14T08:54:59.027Z,3.30
2018-06-14T08:57:27.412Z,3.95
2018-06-14T08:59:55.715Z,3.47
2018-06-14T09:02:23.984Z,3.50
2018-06-14T09:04:53.364Z,2.70
2018-06-14T09:07:23.692Z,3.25
2018-06-14T09:09:51.928Z,3.45
2018-06-14T09:12:20.195Z,3.08
2018-06-14T09:14:48.471Z,2.98
2018-06-14T09:17:17.752Z,4.05
2018-06-14T09:19:45.983Z,4.20
2018-06-14T09:22:14.202Z,4.00
2018-06-14T09:24:42.930Z,3.15
2018-06-14T09:27:10.900Z,2.90
2018-06-14T09:29:40.351Z,3.80
2018-06-14T09:32:08.731Z,4.00
2018-06-14T09:34:36.972Z,4.10
2018-06-14T09:37:05.492Z,3.40
2018-06-14T09:39:33.823Z,3.70
2018-06-14T09:42:04.452Z,3.70
2018-06-14T09:44:32.765Z,4.42
2018-06-14T09:47:00.967Z,4.30
2018-06-14T09:49:29.183Z,4.10
2018-06-14T09:51:57.493Z,4.12
2018-06-14T09:54:25.786Z,3.90
2018-06-14T09:56:54.221Z,3.85
2018-06-14T09:59:22.635Z,3.85
2018-06-14T10:01:50.838Z,3.47
2018-06-14T10:04:19.107Z,3.30
2018-06-14T10:06:47.718Z,3.80
2018-06-14T10:09:16.032Z,3.83
2018-06-14T10:11:44.777Z,3.50
2018-06-14T10:14:14.190Z,3.35
2018-06-14T10:16:42.831Z,3.15
2018-06-14T10:19:11.162Z,3.10
2018-06-14T10:21:39.548Z,2.85
2018-06-14T10:24:11.405Z,3.75
2018-06-14T10:26:39.399Z,3.52
2018-06-14T10:29:07.616Z,3.90
2018-06-14T10:31:35.895Z,3.80
2018-06-14T10:34:04.212Z,3.98
2018-06-14T10:36:32.536Z,3.60
2018-06-14T10:39:00.805Z,3.47
2018-06-14T10:41:29.160Z,3.40
2018-06-14T10:43:57.396Z,3.12
2018-06-14T10:46:25.637Z,3.95
2018-06-14T10:48:54.017Z,3.12
2018-06-14T10:51:22.960Z,3.50
2018-06-14T10:53:51.224Z,3.90
2018-06-14T10:56:20.540Z,3.90
2018-06-14T10:58:48.819Z,4.33
2018-06-14T11:01:17.079Z,3.65
2018-06-14T11:03:45.434Z,3.70
2018-06-14T11:06:13.863Z,3.62
2018-06-14T11:08:42.104Z,4.08
2018-06-14T11:11:10.532Z,3.85
2018-06-14T11:13:38.836Z,3.10
2018-06-14T11:16:07.134Z,3.90
2018-06-14T11:18:35.615Z,3.45
2018-06-14T11:21:04.697Z,4.10
2018-06-14T11:23:33.064Z,4.12
2018-06-14T11:26:01.405Z,3.58
2018-06-14T11:28:29.830Z,3.72
2018-06-14T11:30:58.139Z,3.70
2018-06-14T11:33:26.405Z,4.42
2018-06-14T11:35:54.812Z,3.40
2018-06-14T11:38:23.071Z,4.08
2018-06-14T11:40:51.439Z,3.90
2018-06-14T11:43:20.030Z,4.55
2018-06-14T11:45:48.345Z,5.92
2018-06-14T11:48:16.792Z,5.10
2018-06-14T11:50:45.044Z,4.87
2018-06-14T11:53:13.334Z,5.28
2018-06-14T11:55:41.318Z,3.27
2018-06-14T11:58:09.644Z,3.92
2018-06-14T12:00:37.888Z,3.70
2018-06-14T12:03:06.253Z,3.52
2018-06-14T12:05:34.556Z,3.35
2018-06-14T12:08:02.787Z,3.27
2018-06-14T12:10:31.456Z,3.90
2018-06-14T12:12:59.692Z,3.83
2018-06-14T12:15:27.920Z,3.35
2018-06-14T12:17:56.922Z,3.35
2018-06-14T12:20:26.043Z,3.70
2018-06-14T12:22:54.736Z,3.75
2018-06-14T12:25:22.968Z,3.40
2018-06-14T12:27:51.211Z,4.40
2018-06-14T12:30:20.048Z,3.47
2018-06-14T12:32:48.286Z,3.40
2018-06-14T12:35:16.516Z,3.77
2018-06-14T12:37:44.812Z,2.98
2018-06-14T12:40:13.028Z,3.37
2018-06-14T12:42:41.330Z,3.83
2018-06-14T12:45:09.611Z,3.75
2018-06-14T12:47:38.917Z,3.45
2018-06-14T12:50:07.158Z,3.47
2018-06-14T12:52:35.386Z,4.00
2018-06-14T12:55:04.595Z,4.97
2018-06-14T12:57:33.180Z,3.52
2018-06-14T13:00:02.520Z,3.20
2018-06-14T13:02:31.200Z,3.33
2018-06-14T13:04:59.414Z,3.10
2018-06-14T13:07:27.699Z,3.20
2018-06-14T13:09:56.344Z,4.12
2018-06-14T13:12:25.291Z,3.15
2018-06-14T13:14:53.851Z,3.45
2018-06-14T13:17:22.116Z,4.12
2018-06-14T13:19:50.339Z,4.25
2018-06-14T13:22:18.615Z,3.98
2018-06-14T13:24:46.927Z,3.87
2018-06-14T13:27:15.172Z,4.30
2018-06-14T13:29:43.435Z,3.47
2018-06-14T13:32:12.390Z,4.08
2018-06-14T13:34:40.995Z,4.30
2018-06-14T13:37:09.288Z,4.12
2018-06-14T13:39:37.523Z,4.30
2018-06-14T13:42:05.798Z,3.90
2018-06-14T13:44:34.135Z,4.30
2018-06-14T13:47:02.693Z,3.95
2018-06-14T13:49:30.979Z,4.37
2018-06-14T13:51:59.632Z,3.90
2018-06-14T13:54:27.831Z,3.60
2018-06-14T13:56:56.199Z,4.30
2018-06-14T13:59:24.455Z,5.10
2018-06-14T14:01:53.304Z,4.30
2018-06-14T14:04:21.499Z,3.77
2018-06-14T14:06:53.919Z,3.77
2018-06-14T14:09:22.643Z,4.00
2018-06-14T14:11:50.874Z,3.42
2018-06-14T14:14:20.016Z,3.77
2018-06-14T14:16:48.215Z,4.00
2018-06-14T14:19:16.478Z,4.08
2018-06-14T14:21:44.786Z,4.25
2018-06-14T14:24:13.012Z,3.50
2018-06-14T14:26:41.230Z,3.92
2018-06-14T14:29:10.100Z,3.72
2018-06-14T14:31:38.692Z,4.12
2018-06-14T14:34:07.151Z,3.45
2018-06-14T14:36:35.164Z,3.47
2018-06-14T14:39:04.023Z,3.62
2018-06-14T14:41:32.199Z,3.70
2018-06-14T14:44:00.727Z,4.05
2018-06-14T14:46:28.999Z,4.53
2018-06-14T14:48:57.511Z,4.30
2018-06-14T14:51:25.723Z,3.98
2018-06-14T14:53:54.011Z,4.03
2018-06-14T14:56:22.268Z,4.03
2018-06-14T14:58:50.512Z,3.62
2018-06-14T15:01:18.721Z,3.95
2018-06-14T15:03:47.131Z,3.80
2018-06-14T15:06:15.370Z,3.42
2018-06-14T15:08:43.622Z,3.70
2018-06-14T15:11:11.911Z,3.50
2018-06-14T15:13:39.903Z,3.60
2018-06-14T15:16:08.987Z,3.02
2018-06-14T15:18:37.193Z,3.20
2018-06-14T15:21:05.405Z,3.22
2018-06-14T15:23:33.698Z,3.30
2018-06-14T15:26:01.939Z,3.05
2018-06-14T15:28:30.298Z,3.02
2018-06-14T15:31:00.419Z,3.62
2018-06-14T15:33:29.094Z,3.20
2018-06-14T15:35:57.871Z,3.10
2018-06-14T15:38:26.635Z,3.85
2018-06-14T15:40:54.899Z,3.87
2018-06-14T15:43:23.294Z,3.60
2018-06-14T15:45:51.528Z,3.05
2018-06-14T15:48:19.786Z,3.50
2018-06-14T15:50:48.721Z,3.37
2018-06-14T15:53:16.951Z,3.20
2018-06-14T15:56:07.715Z,3.37
2018-06-14T15:58:35.991Z,3.15
2018-06-14T16:01:04.417Z,3.40
2018-06-14T16:03:32.747Z,3.50
2018-06-14T16:06:01.156Z,3.10
2018-06-14T16:08:29.810Z,3.60
2018-06-14T16:10:59.210Z,4.20
2018-06-14T16:13:27.617Z,3.87
2018-06-14T16:15:56.003Z,5.05
2018-06-14T16:18:24.479Z,4.00
2018-06-14T16:20:52.776Z,4.20
2018-06-14T16:23:21.003Z,3.72
2018-06-14T16:25:49.326Z,4.15
2018-06-14T16:28:17.901Z,3.70
2018-06-14T16:30:47.830Z,3.27
2018-06-14T16:33:16.398Z,3.90
2018-06-14T16:35:44.777Z,3.98
2018-06-14T16:38:13.443Z,4.20
2018-06-14T16:40:41.707Z,4.10
2018-06-14T16:43:09.937Z,4.30
2018-06-14T16:45:38.156Z,3.45
2018-06-14T16:48:06.360Z,4.37
2018-06-14T16:50:34.611Z,4.40
2018-06-14T16:53:02.897Z,4.55
2018-06-14T16:55:31.569Z,4.28
2018-06-14T16:58:00.083Z,3.90
2018-06-14T17:00:28.035Z,4.08
2018-06-14T17:02:56.340Z,4.70
2018-06-14T17:05:24.360Z,4.70
2018-06-14T17:07:52.609Z,4.70
2018-06-14T17:10:20.851Z,4.35
2018-06-14T17:12:49.089Z,4.58
2018-06-14T17:15:17.336Z,5.30
2018-06-14T17:17:45.585Z,4.42
2018-06-14T17:20:13.974Z,4.92
2018-06-14T17:22:42.639Z,4.75
2018-06-14T17:25:10.919Z,4.78
2018-06-14T17:27:41.323Z,3.83
2018-06-14T17:30:09.585Z,4.70
2018-06-14T17:32:37.904Z,4.60
2018-06-14T17:35:06.232Z,4.65
2018-06-14T17:37:34.482Z,4.40
2018-06-14T17:40:02.727Z,4.47
2018-06-14T17:42:31.010Z,4.58
2018-06-14T17:44:59.404Z,5.03
2018-06-14T17:47:28.480Z,4.72
2018-06-14T17:49:56.970Z,5.03
2018-06-14T17:52:25.450Z,5.80
2018-06-14T17:54:53.839Z,5.75
2018-06-14T17:57:22.124Z,5.33
2018-06-14T17:59:50.395Z,5.80
2018-06-14T18:02:18.664Z,5.40
2018-06-14T18:04:47.002Z,5.03
2018-06-14T18:07:15.296Z,5.42
2018-06-14T18:09:43.625Z,5.05
2018-06-14T18:12:11.880Z,5.72
2018-06-14T18:14:40.129Z,5.47
2018-06-14T18:17:08.895Z,5.10
2018-06-14T18:19:37.259Z,5.30
2018-06-14T18:22:05.609Z,5.58
2018-06-14T18:24:34.088Z,5.40
2018-06-14T18:27:02.384Z,5.65
2018-06-14T18:29:31.160Z,5.42
2018-06-14T18:31:59.556Z,5.00
2018-06-14T18:34:27.893Z,5.85
2018-06-14T18:36:56.204Z,5.65
2018-06-14T18:39:24.513Z,5.67
2018-06-14T18:41:52.963Z,5.90
2018-06-14T18:44:21.206Z,6.10
2018-06-14T18:46:49.854Z,5.80
2018-06-14T18:49:18.863Z,6.20
2018-06-14T18:51:48.708Z,6.55
2018-06-14T18:54:17.665Z,6.80
2018-06-14T18:56:45.985Z,6.08
2018-06-14T18:59:14.209Z,6.25
2018-06-14T19:01:42.503Z,5.62
2018-06-14T19:04:11.593Z,5.90
2018-06-14T19:06:39.921Z,6.65
2018-06-14T19:09:09.273Z,5.42
2018-06-14T19:11:37.571Z,6.72
2018-06-14T19:14:06.745Z,6.58
2018-06-14T19:16:35.453Z,6.37
2018-06-14T19:19:04.043Z,7.20
2018-06-14T19:21:32.468Z,7.35
2018-06-14T19:24:00.727Z,8.73
2018-06-14T19:26:29.122Z,8.05
2018-06-14T19:28:57.727Z,7.73
2018-06-14T19:31:25.978Z,7.27
2018-06-14T19:33:54.520Z,7.12
2018-06-14T19:36:22.763Z,7.33
2018-06-14T19:38:51.035Z,7.07
2018-06-14T19:41:19.532Z,7.00
2018-06-14T19:43:47.766Z,7.60
2018-06-14T19:46:16.423Z,7.37
2018-06-14T19:48:44.664Z,7.63
2018-06-14T19:51:13.032Z,7.43
2018-06-14T19:53:41.257Z,7.37
2018-06-14T19:56:09.716Z,6.97
2018-06-14T19:58:37.956Z,7.00
2018-06-14T20:01:06.215Z,6.90
2018-06-14T20:03:34.473Z,7.27
2018-06-14T20:06:02.984Z,6.33
2018-06-14T20:08:32.103Z,7.10
2018-06-14T20:11:00.352Z,7.07
2018-06-14T20:13:28.612Z,6.20
2018-06-14T20:15:56.877Z,6.40
2018-06-14T20:18:27.015Z,6.65
2018-06-14T20:20:55.272Z,6.53
2018-06-14T20:23:23.572Z,7.40
2018-06-14T20:25:52.169Z,6.97
2018-06-14T20:28:20.436Z,6.83
2018-06-14T20:30:48.803Z,7.65
2018-06-14T20:33:17.389Z,8.10
2018-06-14T20:35:45.784Z,7.03
2018-06-14T20:38:14.095Z,7.10
2018-06-14T20:40:42.380Z,7.10
2018-06-14T20:43:10.669Z,6.92
2018-06-14T20:45:41.386Z,6.03
2018-06-14T20:48:09.657Z,4.70
2018-06-14T20:50:37.948Z,3.60
2018-06-14T20:53:06.184Z,3.30
2018-06-14T20:55:34.412Z,2.90
2018-06-14T20:58:02.660Z,2.63
2018-06-14T21:00:30.883Z,2.63
2018-06-14T21:02:59.113Z,3.08
2018-06-14T21:05:27.392Z,2.83
2018-06-14T21:07:55.627Z,2.50
2018-06-14T21:10:23.931Z,2.60
2018-06-14T21:12:52.143Z,2.60
2018-06-14T21:15:20.425Z,2.50
2018-06-14T21:17:48.688Z,2.40
2018-06-14T21:20:16.997Z,2.47
2018-06-14T21:22:45.415Z,2.57
2018-06-14T21:25:14.056Z,2.47
2018-06-14T21:27:42.313Z,2.63
2018-06-14T21:30:10.559Z,2.40
2018-06-14T21:32:38.799Z,2.50
2018-06-14T21:35:07.067Z,2.23
2018-06-14T21:37:35.320Z,3.00
2018-06-14T21:40:03.680Z,2.93
2018-06-14T21:42:32.072Z,3.23
2018-06-14T21:45:00.694Z,3.60
2018-06-14T21:47:28.928Z,3.33
2018-06-14T21:49:57.252Z,3.77
2018-06-14T21:52:25.776Z,3.70
2018-06-14T21:54:54.484Z,3.90
2018-06-14T21:57:23.364Z,3.50
2018-06-14T21:59:51.609Z,3.60
2018-06-14T22:02:19.851Z,4.00
2018-06-14T22:04:48.072Z,4.40
2018-06-14T22:07:16.429Z,4.17
2018-06-14T22:09:45.203Z,4.17
2018-06-14T22:12:13.583Z,4.20
2018-06-14T22:14:41.942Z,4.10
2018-06-14T22:17:11.228Z,4.13
2018-06-14T22:19:39.697Z,4.37
2018-06-14T22:22:07.967Z,4.00
2018-06-14T22:24:37.671Z,4.00
2018-06-14T22:27:06.448Z,4.10
2018-06-14T22:29:34.688Z,4.53
2018-06-14T22:32:02.911Z,3.97
2018-06-14T22:34:42.654Z,4.20
2018-06-14T22:37:10.938Z,3.90
2018-06-14T22:39:39.203Z,4.70
2018-06-14T22:42:08.227Z,4.50
2018-06-14T22:44:37.419Z,4.30
2018-06-14T22:47:06.259Z,4.53
2018-06-14T22:49:34.867Z,4.80
2018-06-14T22:53:18.173Z,4.70
2018-06-14T22:55:46.718Z,4.10
2018-06-14T22:58:15.292Z,4.30
2018-06-14T23:02:02.532Z,4.57
2018-06-14T23:04:31.123Z,4.43
2018-06-14T23:06:59.567Z,3.87
2018-06-14T23:10:42.004Z,4.93
2018-06-14T23:13:12.213Z,4.10
2018-06-14T23:15:40.510Z,4.13
2018-06-14T23:18:09.009Z,4.70
2018-06-14T23:20:37.519Z,4.53
2018-06-14T23:23:06.267Z,4.10
2018-06-14T23:25:34.906Z,4.03
2018-06-14T23:28:03.309Z,3.90
2018-06-14T23:30:31.615Z,3.83
2018-06-14T23:32:59.935Z,4.27
2018-06-14T23:35:28.523Z,4.40
2018-06-14T23:37:56.772Z,4.30
2018-06-14T23:40:25.188Z,4.77
2018-06-14T23:42:53.438Z,4.87
2018-06-14T23:45:21.739Z,5.80
2018-06-14T23:47:49.976Z,4.23
2018-06-14T23:50:18.215Z,5.30
2018-06-14T23:52:46.514Z,5.33
2018-06-14T23:55:15.494Z,5.87
2018-06-14T23:57:43.724Z,5.77
